Map

Track Data

SID SEASON NUMBER BASIN SUBBASIN NAME ISO_TIME NATURE LAT LON WMO_WIND WMO_PRES WMO_AGENCY TRACK_TYPE DIST2LAND LANDFALL IFLAG USA_AGENCY USA_ATCF_ID USA_LAT USA_LON USA_RECORD USA_STATUS USA_WIND USA_PRES USA_SSHS USA_R34_NE USA_R34_SE USA_R34_SW USA_R34_NW USA_R50_NE USA_R50_SE USA_R50_SW USA_R50_NW USA_R64_NE USA_R64_SE USA_R64_SW USA_R64_NW USA_POCI USA_ROCI USA_RMW USA_EYE TOKYO_LAT TOKYO_LON TOKYO_GRADE TOKYO_WIND TOKYO_PRES TOKYO_R50_DIR TOKYO_R50_LONG TOKYO_R50_SHORT TOKYO_R30_DIR TOKYO_R30_LONG TOKYO_R30_SHORT TOKYO_LAND CMA_LAT CMA_LON CMA_CAT CMA_WIND CMA_PRES HKO_LAT HKO_LON HKO_CAT HKO_WIND HKO_PRES NEWDELHI_LAT NEWDELHI_LON NEWDELHI_GRADE NEWDELHI_WIND NEWDELHI_PRES NEWDELHI_CI NEWDELHI_DP NEWDELHI_POCI REUNION_LAT REUNION_LON REUNION_TYPE REUNION_WIND REUNION_PRES REUNION_TNUM REUNION_CI REUNION_RMW REUNION_R34_NE REUNION_R34_SE REUNION_R34_SW REUNION_R34_NW REUNION_R50_NE REUNION_R50_SE REUNION_R50_SW REUNION_R50_NW REUNION_R64_NE REUNION_R64_SE REUNION_R64_SW REUNION_R64_NW BOM_LAT BOM_LON BOM_TYPE BOM_WIND BOM_PRES BOM_TNUM BOM_CI BOM_RMW BOM_R34_NE BOM_R34_SE BOM_R34_SW BOM_R34_NW BOM_R50_NE BOM_R50_SE BOM_R50_SW BOM_R50_NW BOM_R64_NE BOM_R64_SE BOM_R64_SW BOM_R64_NW BOM_ROCI BOM_POCI BOM_EYE BOM_POS_METHOD BOM_PRES_METHOD NADI_LAT NADI_LON NADI_CAT NADI_WIND NADI_PRES WELLINGTON_LAT WELLINGTON_LON WELLINGTON_WIND WELLINGTON_PRES DS824_LAT DS824_LON DS824_STAGE DS824_WIND DS824_PRES TD9636_LAT TD9636_LON TD9636_STAGE TD9636_WIND TD9636_PRES TD9635_LAT TD9635_LON TD9635_WIND TD9635_PRES TD9635_ROCI NEUMANN_LAT NEUMANN_LON NEUMANN_CLASS NEUMANN_WIND NEUMANN_PRES MLC_LAT MLC_LON MLC_CLASS MLC_WIND MLC_PRES USA_GUST BOM_GUST BOM_GUST_PER REUNION_GUST REUNION_GUST_PER USA_SEAHGT USA_SEARAD_NE USA_SEARAD_SE USA_SEARAD_SW USA_SEARAD_NW STORM_SPEED STORM_DIR
1891263N16097 1891 36 NI BB NOT_NAMED 1891-09-20 00:00:00 TS 15.6000 97.1000 main 68 68 _________O____ -1 15.6000 97.1000 TC 30 12 270
1891263N16097 1891 36 NI BB NOT_NAMED 1891-09-20 03:00:00 TS 15.6021 96.4697 main 89 10 _________PO___ -1 15.6031 96.1545 TC 30 15.6000 97.1000 1 15 274
1891263N16097 1891 36 NI BB NOT_NAMED 1891-09-20 06:00:00 TS 15.7124 95.5583 main 10 0 _________OP___ -1 15.7000 95.2000 TC 30 15.7309 96.0957 1 18 280
1891263N16097 1891 36 NI BB NOT_NAMED 1891-09-20 09:00:00 TS 15.9218 94.6227 main 0 0 _________PP___ -1 15.9550 94.2479 TC 30 15.8774 95.1226 1 18 286
1891263N16097 1891 36 NI BB NOT_NAMED 1891-09-20 12:00:00 TS 16.1800 93.8066 main 48 48 _________OP___ -1 16.3000 93.4000 TC 30 16.0601 94.2133 1 16 290
1891263N16097 1891 36 NI BB NOT_NAMED 1891-09-20 15:00:00 TS 16.4710 93.0736 main 127 127 _________PO___ -1 16.6419 92.7472 TC 31 16.3000 93.4000 1 14 296
1891263N16097 1891 36 NI BB NOT_NAMED 1891-09-20 18:00:00 TS 16.8050 92.4522 main 194 194 _________OP___ -1 17.0000 92.2000 TC 32 16.6100 92.7044 1 14 301
1891263N16097 1891 36 NI BB NOT_NAMED 1891-09-20 21:00:00 TS 17.1663 91.8677 main 267 267 _________PP___ -1 17.3649 91.6275 TC 33 16.9678 92.1080 1 13 304
1891263N16097 1891 36 NI BB NOT_NAMED 1891-09-21 00:00:00 TS 17.5209 91.3412 main 303 297 _________OP___ -1 17.7000 91.1000 TC 34 17.3418 91.5825 1 12 305
1891263N16097 1891 36 NI BB NOT_NAMED 1891-09-21 03:00:00 TS 17.8286 90.8673 main 324 324 _________PO___ -1 17.9573 90.6346 TC 36 17.7000 91.1000 2 11 302
1891263N16097 1891 36 NI BB NOT_NAMED 1891-09-21 06:00:00 TS 18.0919 90.3984 main 344 344 _________OP___ -1 18.2000 90.2000 TC 39 17.9838 90.5969 2 10 301
1891263N16097 1891 36 NI BB NOT_NAMED 1891-09-21 09:00:00 TS 18.3672 89.9331 main 362 338 _________PP___ -1 18.4850 89.7349 TC 42 18.2494 90.1313 2 10 304
1891263N16097 1891 36 NI BB NOT_NAMED 1891-09-21 12:00:00 TS 18.6576 89.5000 main 327 290 _________OP___ -1 18.8000 89.3000 TC 45 18.5152 89.7001 2 10 308
1891263N16097 1891 36 NI BB NOT_NAMED 1891-09-21 15:00:00 TS 18.9712 89.1174 main 290 244 _________PO___ -1 19.1423 88.9348 TC 45 18.8000 89.3000 3 10 313
1891263N16097 1891 36 NI BB NOT_NAMED 1891-09-21 18:00:00 TS 19.3139 88.7684 main 244 199 _________OP___ -1 19.5000 88.6000 TC 45 19.1277 88.9368 3 10 317
1891263N16097 1891 36 NI BB NOT_NAMED 1891-09-21 21:00:00 TS 19.6632 88.4318 main 183 138 _________PP___ -1 19.8498 88.2647 TC 45 19.4765 88.5989 3 10 317
1891263N16097 1891 36 NI BB NOT_NAMED 1891-09-22 00:00:00 TS 20.0185 88.0808 main 138 80 _________OP___ -1 20.2000 87.9000 TC 45 19.8371 88.2617 3 10 315
1891263N16097 1891 36 NI BB NOT_NAMED 1891-09-22 03:00:00 TS 20.3750 87.6824 main 80 31 _________PO___ -1 20.5500 87.4649 TC 41 20.2000 87.9000 3 11 313
1891263N16097 1891 36 NI BB NOT_NAMED 1891-09-22 06:00:00 TS 20.7431 87.2457 main 20 0 _________OP___ -1 20.9000 87.0000 TC 37 20.5863 87.4913 3 11 312
1891263N16097 1891 36 NI BB NOT_NAMED 1891-09-22 09:00:00 TS 21.1197 86.8053 main 0 0 _________PP___ -1 21.2723 86.5575 TC 33 20.9671 87.0531 3 11 310
1891263N16097 1891 36 NI BB NOT_NAMED 1891-09-22 12:00:00 TS 21.4571 86.3441 main 0 0 _________OP___ -1 21.6000 86.1000 TC 30 21.3143 86.5883 3 11 304
1891263N16097 1891 36 NI BB NOT_NAMED 1891-09-22 15:00:00 TS 21.7224 85.8575 main 0 0 _________PO___ -1 21.8448 85.6149 TC 30 21.6000 86.1000 1 10 296
1891263N16097 1891 36 NI BB NOT_NAMED 1891-09-22 18:00:00 TS 21.9090 85.3481 main 0 0 _________OP___ -1 22.0000 85.1000 TC 30 21.8179 85.5961 1 10 288
1891263N16097 1891 36 NI BB NOT_NAMED 1891-09-22 21:00:00 TS 22.0285 84.8148 main 0 0 _________PP___ -1 22.0874 84.5574 TC 30 21.9697 85.0721 1 10 280
1891263N16097 1891 36 NI BB NOT_NAMED 1891-09-23 00:00:00 TS 22.0808 84.2685 main 0 0 _________OP___ -1 22.1000 84.0000 TC 30 22.0616 84.5371 1 10 273
1891263N16097 1891 36 NI BB NOT_NAMED 1891-09-23 03:00:00 TS 22.0824 83.7212 main 0 0 _________PO___ -1 22.0649 83.4424 TC 30 22.1000 84.0000 1 10 268
1891263N16097 1891 36 NI BB NOT_NAMED 1891-09-23 06:00:00 TS 22.0522 83.1729 main 0 0 _________OP___ -1 22.0000 82.9000 TC 30 22.1044 83.4458 1 10 266
1891263N16097 1891 36 NI BB NOT_NAMED 1891-09-23 09:00:00 TS 22.0051 82.6333 main 0 0 _________PP___ -1 21.9500 82.3700 TC 30 22.0602 82.8965 1 10 264
1891263N16097 1891 36 NI BB NOT_NAMED 1891-09-23 12:00:00 TS 21.9429 82.1370 main 0 0 _________OP___ -1 21.9000 81.9000 TC 30 21.9858 82.3741 1 9 262
1891263N16097 1891 36 NI BB NOT_NAMED 1891-09-23 15:00:00 TS 21.8786 81.7138 main 0 0 _________PO___ -1 21.8573 81.5276 TC 30 21.9000 81.9000 1 8 260
1891263N16097 1891 36 NI BB NOT_NAMED 1891-09-23 18:00:00 TS 21.8179 81.3336 main 0 0 _________OP___ -1 21.8000 81.2000 TC 30 21.8358 81.4673 1 7 259
1891263N16097 1891 36 NI BB NOT_NAMED 1891-09-23 21:00:00 TS 21.7360 80.9538 main 0 0 _________PP___ -1 21.7076 80.8199 TC 30 21.7645 81.0876 1 7 255
1891263N16097 1891 36 NI BB NOT_NAMED 1891-09-24 00:00:00 TS 21.6430 80.6321 main 0 0 _________OP___ -1 21.6000 80.5000 TC 30 21.6860 80.7641 1 5 250
1891263N16097 1891 36 NI BB NOT_NAMED 1891-09-24 03:00:00 TS 21.5499 80.4100 main 0 0 _________PO___ -1 21.4999 80.3201 TC 30 21.6000 80.5000 1 4 241
1891263N16097 1891 36 NI BB NOT_NAMED 1891-09-24 06:00:00 TS 21.4493 80.2504 main 0 0 _________OP___ -1 21.4000 80.2000 TC 30 21.4986 80.3008 1 4 234
1891263N16097 1891 36 NI BB NOT_NAMED 1891-09-24 09:00:00 TS 21.3422 80.1064 main 0 0 _________PP___ -1 21.2925 80.0575 TC 30 21.3919 80.1552 1 3 232
1891263N16097 1891 36 NI BB NOT_NAMED 1891-09-24 12:00:00 TS 21.2446 79.9660 main 0 0 _________OP___ -1 21.2000 79.9000 TC 30 21.2893 80.0320 1 3 239
1891263N16097 1891 36 NI BB NOT_NAMED 1891-09-24 15:00:00 TS 21.1712 79.8038 main 0 0 _________PO___ -1 21.1425 79.7075 TC 30 21.2000 79.9000 1 4 250
1891263N16097 1891 36 NI BB NOT_NAMED 1891-09-24 18:00:00 TS 21.1179 79.5930 main 0 0 _________OP___ -1 21.1000 79.5000 TC 30 21.1358 79.6860 1 4 256
1891263N16097 1891 36 NI BB NOT_NAMED 1891-09-24 21:00:00 TS 21.0676 79.3700 main 0 0 _________PP___ -1 21.0500 79.2775 TC 30 21.0853 79.4625 1 4 256
1891263N16097 1891 36 NI BB NOT_NAMED 1891-09-25 00:00:00 TS 21.0210 79.1789 main 0 0 _________OP___ -1 21.0000 79.1000 TC 30 21.0421 79.2578 1 3 252
1891263N16097 1891 36 NI BB NOT_NAMED 1891-09-25 03:00:00 TS 20.9750 79.0600 main 0 0 _________PO___ -1 20.9500 79.0200 TC 30 21.0000 79.1000 1 2 237
1891263N16097 1891 36 NI BB NOT_NAMED 1891-09-25 06:00:00 TS 20.9229 79.0165 main 0 0 _________OP___ -1 20.9000 79.0000 TC 30 20.9458 79.0329 1 1 209
1891263N16097 1891 36 NI BB NOT_NAMED 1891-09-25 09:00:00 TS 20.8712 79.0063 main 0 0 _________PP___ -1 20.8500 79.0000 TC 30 20.8923 79.0126 1 1 194
1891263N16097 1891 36 NI BB NOT_NAMED 1891-09-25 12:00:00 TS 20.8214 79.0055 main 0 0 _________OP___ -1 20.8000 79.0000 TC 30 20.8427 79.0110 1 1 0
1891263N16097 1891 36 NI BB NOT_NAMED 1891-09-25 15:00:00 TS 20.7712 78.9825 main 0 0 _________PO___ -1 20.7425 78.9650 TC 30 20.8000 79.0000 1 1 218
1891263N16097 1891 36 NI BB NOT_NAMED 1891-09-25 18:00:00 TS 20.7177 78.9196 main 0 0 _________OP___ -1 20.7000 78.9000 TC 30 20.7353 78.9393 1 2 236
1891263N16097 1891 36 NI BB NOT_NAMED 1891-09-25 21:00:00 TS 20.6763 78.8361 main 0 0 _________PP___ -1 20.6700 78.8075 TC 30 20.6825 78.8648 1 2 258
1891263N16097 1891 36 NI BB NOT_NAMED 1891-09-26 00:00:00 TS 20.6817 78.7415 main 0 0 _________OP___ -1 20.7000 78.7000 TC 30 20.6634 78.7830 1 2 296
1891263N16097 1891 36 NI BB NOT_NAMED 1891-09-26 03:00:00 TS 20.7600 78.6463 main 0 0 _________PO___ -1 20.8200 78.5925 TC 30 20.7000 78.7000 1 3 321
1891263N16097 1891 36 NI BB NOT_NAMED 1891-09-26 06:00:00 TS 20.9047 78.5545 main 0 0 _________OP___ -1 21.0000 78.5000 TC 30 20.8094 78.6090 1 4 334
1891263N16097 1891 36 NI BB NOT_NAMED 1891-09-26 09:00:00 TS 21.0800 78.4777 main 0 0 _________PP___ -1 21.1850 78.4350 TC 30 20.9750 78.5203 1 4 342
1891263N16097 1891 36 NI BB NOT_NAMED 1891-09-26 12:00:00 TS 21.2891 78.4232 main 0 0 _________OP___ -1 21.4000 78.4000 TC 30 21.1781 78.4465 1 5 351
1891263N16097 1891 36 NI BB NOT_NAMED 1891-09-26 15:00:00 TS 21.5250 78.3925 main 0 0 _________PO___ -1 21.6500 78.3850 TC 30 21.4000 78.4000 1 5 356
1891263N16097 1891 36 NI BB NOT_NAMED 1891-09-26 18:00:00 TS 21.7594 78.3920 main 0 0 _________OP___ -1 21.9000 78.4000 TC 30 21.6187 78.3840 1 5 3
1891263N16097 1891 36 NI BB NOT_NAMED 1891-09-26 21:00:00 TS 21.9787 78.4162 main 0 0 _________PP___ -1 22.1075 78.4350 TC 30 21.8499 78.3975 1 4 9
1891263N16097 1891 36 NI BB NOT_NAMED 1891-09-27 00:00:00 TS 22.1906 78.4686 main 0 0 _________OP___ -1 22.3000 78.5000 TC 30 22.0812 78.4372 1 4 15
1891263N16097 1891 36 NI BB NOT_NAMED 1891-09-27 03:00:00 TS 22.4038 78.5462 main 0 0 _________PO___ -1 22.5075 78.5925 TC 30 22.3000 78.5000 1 4 21
1891263N16097 1891 36 NI BB NOT_NAMED 1891-09-27 06:00:00 TS 22.5947 78.6412 main 0 0 _________OP___ -1 22.7000 78.7000 TC 30 22.4894 78.5824 1 4 28
1891263N16097 1891 36 NI BB NOT_NAMED 1891-09-27 09:00:00 TS 22.7575 78.7462 main 0 0 _________PP___ -1 22.8500 78.8075 TC 30 22.6651 78.6849 1 4 30
1891263N16097 1891 36 NI BB NOT_NAMED 1891-09-27 12:00:00 TS 22.9166 78.8475 main 0 0 _________OP___ -1 23.0000 78.9000 TC 30 22.8332 78.7949 1 4 26
1891263N16097 1891 36 NI BB NOT_NAMED 1891-09-27 15:00:00 TS 23.1000 78.9250 main 0 0 _________PO___ -1 23.2000 78.9501 TC 30 23.0000 78.9000 1 4 19
1891263N16097 1891 36 NI BB NOT_NAMED 1891-09-27 18:00:00 TS 23.2935 78.9830 main 0 0 _________OP___ -1 23.4000 79.0000 TC 30 23.1871 78.9661 1 4 18
1891263N16097 1891 36 NI BB NOT_NAMED 1891-09-27 21:00:00 TS 23.4687 79.0564 main 0 0 _________PP___ -1 23.5650 79.0850 TC 30 23.3723 79.0277 1 4 25
1891263N16097 1891 36 NI BB NOT_NAMED 1891-09-28 00:00:00 TS 23.6232 79.1502 main 0 0 _________OP___ -1 23.7000 79.2000 TC 30 23.5464 79.1005 1 3 34
1891263N16097 1891 36 NI BB NOT_NAMED 1891-09-28 03:00:00 TS 23.7537 79.2675 main 0 0 _________PO___ -1 23.8075 79.3350 TC 30 23.7000 79.2000 1 3 46
1891263N16097 1891 36 NI BB NOT_NAMED 1891-09-28 06:00:00 TS 23.8608 79.4211 main 0 0 _________OP___ -1 23.9000 79.5000 TC 30 23.8216 79.3423 1 4 56
1891263N16097 1891 36 NI BB NOT_NAMED 1891-09-28 09:00:00 TS 23.9613 79.6026 main 0 0 _________PP___ -1 24.0000 79.6925 TC 30 23.9225 79.5126 1 4 61
1891263N16097 1891 36 NI BB NOT_NAMED 1891-09-28 12:00:00 TS 24.0561 79.8008 main 0 0 _________OP___ -1 24.1000 79.9000 TC 30 24.0122 79.7017 1 4 63
1891263N16097 1891 36 NI BB NOT_NAMED 1891-09-28 15:00:00 TS 24.1500 80.0000 main 0 0 _________PO___ -1 24.2000 80.1000 TC 30 24.1000 79.9000 1 4 63
1891263N16097 1891 36 NI BB NOT_NAMED 1891-09-28 18:00:00 TS 24.2460 80.2086 main 0 0 _________OP___ -1 24.3000 80.3000 TC 30 24.1920 80.1172 1 4 64
1891263N16097 1891 36 NI BB NOT_NAMED 1891-09-28 21:00:00 TS 24.3389 80.4262 main 0 0 _________PP___ -1 24.3925 80.5150 TC 30 24.2852 80.3374 1 4 62
1891263N16097 1891 36 NI BB NOT_NAMED 1891-09-29 00:00:00 TS 24.4429 80.6195 main 0 0 _________OP___ -1 24.5000 80.7000 TC 30 24.3858 80.5390 1 4 53
1891263N16097 1891 36 NI BB NOT_NAMED 1891-09-29 03:00:00 TS 24.5712 80.7650 main 0 0 _________PO___ -1 24.6425 80.8300 TC 30 24.5000 80.7000 1 4 38
1891263N16097 1891 36 NI BB NOT_NAMED 1891-09-29 06:00:00 TS 24.7198 80.8587 main 0 0 _________OP___ -1 24.8000 80.9000 TC 30 24.6395 80.8175 1 3 23
1891263N16097 1891 36 NI BB NOT_NAMED 1891-09-29 09:00:00 TS 24.8749 80.9100 main 0 0 _________PP___ -1 24.9575 80.9300 TC 30 24.7923 80.8899 1 3 6
1891263N16097 1891 36 NI BB NOT_NAMED 1891-09-29 12:00:00 TS 25.0245 80.9087 main 0 0 _________OP___ -1 25.1000 80.9000 TC 30 24.9489 80.9174 1 3 353
1891263N16097 1891 36 NI BB NOT_NAMED 1891-09-29 15:00:00 TS 25.1500 80.8575 main 0 0 _________PO___ -1 25.2000 80.8150 TC 30 25.1000 80.9000 1 3 332
1891263N16097 1891 36 NI BB NOT_NAMED 1891-09-29 18:00:00 TS 25.2722 80.7656 main 0 0 _________OP___ -1 25.3000 80.7000 TC 30 25.2445 80.8312 1 3 326
1891263N16097 1891 36 NI BB NOT_NAMED 1891-09-29 21:00:00 TS 25.4188 80.6577 main 0 0 _________PP___ -1 25.4575 80.5925 TC 30 25.3801 80.7229 1 3 325
1891263N16097 1891 36 NI BB NOT_NAMED 1891-09-30 00:00:00 TS 25.5504 80.5515 main 0 0 _________OP___ -1 25.6000 80.5000 TC 30 25.5007 80.6031 1 3 321
1891263N16097 1891 36 NI BB NOT_NAMED 1891-09-30 03:00:00 TS 25.6325 80.4675 main 0 0 _________PO___ -1 25.6650 80.4350 TC 30 25.6000 80.5000 1 2 321
1891263N16097 1891 36 NI BB NOT_NAMED 1891-09-30 06:00:00 TS 25.6837 80.4246 main 0 0 _________OP___ -1 25.7000 80.4000 TC 30 25.6675 80.4493 1 1 333
1891263N16097 1891 36 NI BB NOT_NAMED 1891-09-30 09:00:00 TS 25.7325 80.4062 main 0 0 _________PP___ -1 25.7500 80.3925 TC 30 25.7150 80.4199 1 1 345
1891263N16097 1891 36 NI BB NOT_NAMED 1891-09-30 12:00:00 TS 25.7775 80.4028 main 0 0 _________OP___ -1 25.8000 80.4000 TC 30 25.7550 80.4055 1 1 0
1891263N16097 1891 36 NI BB NOT_NAMED 1891-09-30 15:00:00 TS 25.8212 80.4000 main 0 0 _________PO___ -1 25.8425 80.4000 TC 30 25.8000 80.4000 1 1 351
1891263N16097 1891 36 NI BB NOT_NAMED 1891-09-30 18:00:00 TS 25.8879 80.3782 main 0 0 _________OP___ -1 25.9000 80.4000 TC 30 25.8758 80.3563 1 2 346
1891263N16097 1891 36 NI BB NOT_NAMED 1891-09-30 21:00:00 TS 25.9749 80.3476 main 0 0 _________PP___ -1 25.9925 80.3701 TC 30 25.9573 80.3251 1 2 352
1891263N16097 1891 36 NI BB NOT_NAMED 1891-10-01 00:00:00 TS 26.0675 80.3657 main 0 0 _________OP___ -1 26.1000 80.4000 TC 30 26.0351 80.3313 1 2 32
1891263N16097 1891 36 NI BB NOT_NAMED 1891-10-01 03:00:00 TS 26.1613 80.4812 main 0 0 _________PO___ -1 26.2225 80.5623 TC 30 26.1000 80.4000 1 3 61
1891263N16097 1891 36 NI BB NOT_NAMED 1891-10-01 06:00:00 TS 26.2280 80.6861 main 0 0 _________OP___ -1 26.3000 80.8000 TC 30 26.1559 80.5723 1 4 80
1891263N16097 1891 36 NI BB NOT_NAMED 1891-10-01 09:00:00 TS 26.2340 80.9312 main 0 0 _________PP___ -1 26.2726 81.0576 TC 30 26.1955 80.8047 1 4 93
1891263N16097 1891 36 NI BB NOT_NAMED 1891-10-01 12:00:00 TS 26.2061 81.1799 main 0 0 _________OP___ -1 26.2000 81.3000 TC 30 26.2122 81.0598 1 4 98
1891263N16097 1891 36 NI BB NOT_NAMED 1891-10-01 15:00:00 TS 26.1787 81.3825 main 0 0 _________PO___ -1 26.1574 81.4649 TC 30 26.2000 81.3000 1 3 103
1891263N16097 1891 36 NI BB NOT_NAMED 1891-10-01 18:00:00 TS 26.1317 81.5406 main 0 0 _________OP___ -1 26.1000 81.6000 TC 30 26.1554 81.4961 1 3 114
1891263N16097 1891 36 NI BB NOT_NAMED 1891-10-01 21:00:00 TS 26.0549 81.6897 main 0 0 _________PP___ -1 26.0101 81.7451 TC 30 26.0847 81.6528 1 3 123
1891263N16097 1891 36 NI BB NOT_NAMED 1891-10-02 00:00:00 TS 25.9645 81.8220 main 0 0 _________OP___ -1 25.9000 81.9000 TC 30 25.9967 81.7831 1 2 129
1891263N16097 1891 36 NI BB NOT_NAMED 1891-10-02 03:00:00 NR 25.9000 81.9000 main 0 __________O___ -1 TC 25.9000 81.9000 1 2 132

About IBTrACS Database

This database is a web-friendly format of International Best Track Archive for Climate Stewardship (IBTrACS), a global best track data archive curated by NOAA dating back to 1842.

Updated: 2021-10-08